createdAt,value
2019-05-17T00:03:46.977Z,76964.52
2019-05-17T00:09:03.837Z,76959.53
2019-05-17T00:14:09.270Z,76961.53
2019-05-17T00:19:19.685Z,76942.55
2019-05-17T00:24:28.500Z,76886.64
2019-05-17T00:29:38.182Z,76923.59
2019-05-17T00:34:47.978Z,76927.58
2019-05-17T00:39:59.774Z,76924.59
2019-05-17T00:45:06.874Z,76941.56
2019-05-17T00:50:17.055Z,76942.55
2019-05-17T00:55:27.742Z,76940.56
2019-05-17T01:00:37.557Z,76926.58
2019-05-17T01:05:49.482Z,76919.59
2019-05-17T01:10:58.214Z,76926.58
2019-05-17T01:16:07.465Z,76920.59
2019-05-17T01:21:18.538Z,76896.63
2019-05-17T01:26:30.137Z,76896.63
2019-05-17T01:31:39.879Z,76894.63
2019-05-17T01:36:52.713Z,76903.62
2019-05-17T01:42:03.462Z,76921.59
2019-05-17T01:47:12.229Z,76946.55
2019-05-17T01:52:21.491Z,76933.57
2019-05-17T01:57:37.118Z,76946.55
2019-05-17T02:02:50.789Z,76953.54
2019-05-17T02:07:59.892Z,76933.57
2019-05-17T02:13:09.964Z,76942.55
2019-05-17T02:18:19.084Z,76947.55
2019-05-17T02:23:27.015Z,76953.54
2019-05-17T02:28:34.107Z,76964.52
2019-05-17T02:33:43.281Z,76959.53
2019-05-17T02:38:56.199Z,76979.50
2019-05-17T02:44:04.488Z,77003.46
2019-05-17T02:49:23.527Z,77031.42
2019-05-17T02:54:32.901Z,77041.41
2019-05-17T02:59:43.282Z,77044.40
2019-05-17T03:04:54.627Z,77042.41
2019-05-17T03:10:16.483Z,77029.42
2019-05-17T03:15:15.063Z,77010.45
2019-05-17T03:20:24.233Z,76994.48
2019-05-17T03:25:34.188Z,76983.49
2019-05-17T03:30:46.643Z,76983.49
2019-05-17T03:36:06.445Z,76974.51
2019-05-17T03:41:23.176Z,76975.50
2019-05-17T03:46:27.723Z,76958.53
2019-05-17T03:51:42.564Z,76958.53
2019-05-17T03:56:53.350Z,76937.56
2019-05-17T04:02:03.517Z,76933.57
2019-05-17T04:07:13.569Z,76925.58
2019-05-17T04:12:26.143Z,76923.59
2019-05-17T04:17:38.239Z,76921.59
2019-05-17T04:22:46.370Z,76933.57
2019-05-17T04:27:56.046Z,76919.59
2019-05-17T04:33:07.655Z,76909.61
2019-05-17T04:38:16.971Z,76873.66
2019-05-17T04:43:26.872Z,76862.68
2019-05-17T04:48:43.515Z,76878.66
2019-05-17T04:53:52.981Z,76863.68
2019-05-17T04:58:58.818Z,76862.68
2019-05-17T05:04:04.946Z,76832.73
2019-05-17T05:09:16.184Z,76839.72
2019-05-17T05:14:24.935Z,76852.70
2019-05-17T05:19:34.723Z,76857.69
2019-05-17T05:24:45.631Z,76844.70
2019-05-17T05:29:55.146Z,76830.73
2019-05-17T05:35:03.240Z,76781.81
2019-05-17T05:40:26.953Z,76740.88
2019-05-17T05:45:37.483Z,76692.95
2019-05-17T05:50:48.321Z,76680.97
2019-05-17T05:56:02.888Z,76636.05
2019-05-17T06:01:07.989Z,76648.02
2019-05-17T06:06:16.004Z,76673.98
2019-05-17T06:11:28.906Z,76678.97
2019-05-17T06:16:38.591Z,76609.09
2019-05-17T06:21:46.239Z,76576.14
2019-05-17T06:26:53.626Z,76502.27
2019-05-17T06:32:04.326Z,76515.25
2019-05-17T06:37:16.702Z,76588.13
2019-05-17T06:42:38.363Z,76600.11
2019-05-17T06:47:38.780Z,76541.20
2019-05-17T06:52:53.253Z,76536.21
2019-05-17T06:58:01.709Z,76522.23
2019-05-17T07:03:11.676Z,76513.25
2019-05-17T07:08:22.143Z,76428.39
2019-05-17T07:13:30.297Z,76368.48
2019-05-17T07:18:41.391Z,76354.52
2019-05-17T07:23:46.875Z,76390.45
2019-05-17T07:28:59.275Z,76421.41
2019-05-17T07:34:09.219Z,76430.39
2019-05-17T07:39:14.800Z,76428.39
2019-05-17T07:44:24.032Z,76451.34
2019-05-17T07:49:33.959Z,76416.41
2019-05-17T07:54:44.647Z,76466.33
2019-05-17T07:59:54.698Z,76380.47
2019-05-17T08:05:10.094Z,76358.51
2019-05-17T08:10:29.784Z,76321.57
2019-05-17T08:15:40.420Z,76311.59
2019-05-17T08:20:50.880Z,76250.69
2019-05-17T08:26:10.850Z,76262.67
2019-05-17T08:31:21.727Z,76311.59
2019-05-17T08:36:31.539Z,76329.56
2019-05-17T08:41:40.468Z,76235.72
2019-05-17T08:46:51.998Z,76236.72
2019-05-17T08:52:01.851Z,76240.71
2019-05-17T08:57:09.553Z,76290.63
2019-05-17T09:02:16.551Z,76328.56
2019-05-17T09:07:29.578Z,76296.61
2019-05-17T09:12:41.329Z,76301.61
2019-05-17T09:17:49.886Z,76316.58
2019-05-17T09:23:01.247Z,76340.54
2019-05-17T09:28:10.215Z,76327.56
2019-05-17T09:33:20.253Z,76290.63
2019-05-17T09:38:29.626Z,76207.77
2019-05-17T09:43:35.250Z,76198.78
2019-05-17T09:48:50.526Z,76305.59
2019-05-17T09:53:56.743Z,76330.55
2019-05-17T09:59:06.551Z,76256.68
2019-05-17T10:04:15.709Z,76209.77
2019-05-17T10:09:27.323Z,76176.82
2019-05-17T10:14:38.021Z,76079.99
2019-05-17T10:19:49.270Z,75918.28
2019-05-17T10:25:01.762Z,76015.11
2019-05-17T10:30:13.729Z,76073.00
2019-05-17T10:35:21.792Z,76188.80
2019-05-17T10:40:33.650Z,76212.76
2019-05-17T10:45:41.253Z,76240.71
2019-05-17T10:50:49.770Z,76248.70
2019-05-17T10:56:00.690Z,76234.72
2019-05-17T11:01:06.380Z,76190.80
2019-05-17T11:06:12.006Z,76211.77
2019-05-17T11:11:20.110Z,76156.86
2019-05-17T11:16:28.817Z,76164.84
2019-05-17T11:21:36.898Z,76171.83
2019-05-17T11:26:43.521Z,76128.91
2019-05-17T11:31:50.685Z,76033.08
2019-05-17T11:36:57.563Z,75938.25
2019-05-17T11:42:07.269Z,75886.34
2019-05-17T11:47:16.135Z,75905.30
2019-05-17T11:52:25.788Z,75879.35
2019-05-17T11:57:35.169Z,75913.29
2019-05-17T12:02:44.793Z,75911.30
2019-05-17T12:07:50.796Z,75875.36
2019-05-17T12:12:59.774Z,75901.31
2019-05-17T12:18:08.715Z,75855.39
2019-05-17T12:23:18.690Z,75797.50
2019-05-17T12:28:28.832Z,75807.48
2019-05-17T12:33:38.139Z,75897.32
2019-05-17T12:38:47.080Z,75846.41
2019-05-17T12:43:56.796Z,75937.25
2019-05-17T12:49:04.720Z,75967.19
2019-05-17T12:54:13.633Z,76013.11
2019-05-17T12:59:22.881Z,76042.06
2019-05-17T13:04:34.023Z,76053.04
2019-05-17T13:09:41.449Z,76023.09
2019-05-17T13:14:52.711Z,76034.08
2019-05-17T13:20:02.930Z,76033.08
2019-05-17T13:25:11.702Z,76042.06
2019-05-17T13:30:21.562Z,76054.03
2019-05-17T13:35:32.281Z,76069.01
2019-05-17T13:40:40.227Z,76063.02
2019-05-17T13:45:53.259Z,76059.03
2019-05-17T13:51:04.724Z,76089.97
2019-05-17T13:56:14.870Z,76123.91
2019-05-17T14:01:20.782Z,76089.97
2019-05-17T14:06:26.631Z,76035.07
2019-05-17T14:11:36.158Z,76067.02
2019-05-17T14:16:43.449Z,76059.03
2019-05-17T14:21:52.417Z,76012.11
2019-05-17T14:27:01.899Z,76012.11
2019-05-17T14:32:11.828Z,76012.11
2019-05-17T14:37:19.099Z,76001.13
2019-05-17T14:42:26.350Z,75995.14
2019-05-17T14:47:36.353Z,75969.19
2019-05-17T14:52:48.126Z,75995.14
2019-05-17T14:57:54.863Z,75963.20
2019-05-17T15:03:01.830Z,76019.10
2019-05-17T15:08:11.823Z,76006.13
2019-05-17T15:13:19.683Z,76007.13
2019-05-17T15:18:29.797Z,75979.17
2019-05-17T15:23:37.011Z,76046.05
2019-05-17T15:28:43.341Z,76007.13
2019-05-17T15:33:58.805Z,75961.20
2019-05-17T15:39:05.358Z,75899.31
2019-05-17T15:44:14.225Z,75884.34
2019-05-17T15:49:29.523Z,75909.30
2019-05-17T15:55:00.093Z,75947.23
2019-05-17T16:00:13.610Z,76011.11
2019-05-17T16:05:19.858Z,75972.19
2019-05-17T16:10:30.650Z,75976.17
2019-05-17T16:15:39.818Z,75984.16
2019-05-17T16:20:50.086Z,75968.19
2019-05-17T16:25:57.134Z,76023.09
2019-05-17T16:31:03.037Z,76108.94
2019-05-17T16:36:09.168Z,76152.86
2019-05-17T16:41:18.492Z,76161.84
2019-05-17T16:46:25.837Z,76164.84
2019-05-17T16:51:34.612Z,76186.80
2019-05-17T16:56:45.572Z,76218.75
2019-05-17T17:01:54.499Z,76229.73
2019-05-17T17:07:05.519Z,76240.71
2019-05-17T17:12:13.480Z,76235.72
2019-05-17T17:17:23.606Z,76209.77
2019-05-17T17:22:36.222Z,76252.69
2019-05-17T17:27:43.904Z,76257.68
2019-05-17T17:32:53.636Z,76292.63
2019-05-17T17:38:05.429Z,76231.73
2019-05-17T17:43:11.660Z,76302.60
2019-05-17T17:48:19.530Z,76320.58
2019-05-17T17:53:31.038Z,76380.47
2019-05-17T17:58:38.093Z,76413.41
2019-05-17T18:03:46.678Z,76406.42
2019-05-17T18:09:06.434Z,76430.39
2019-05-17T18:14:18.882Z,76412.42
2019-05-17T18:19:27.826Z,76392.45
2019-05-17T18:24:37.620Z,76400.44
2019-05-17T18:29:48.579Z,76376.48
2019-05-17T18:34:58.692Z,76365.50
2019-05-17T18:40:07.153Z,76356.52
2019-05-17T18:45:16.288Z,76359.50
2019-05-17T18:50:23.063Z,76378.47
2019-05-17T18:55:31.355Z,76385.46
2019-05-17T19:00:41.246Z,76379.47
2019-05-17T19:05:53.541Z,76375.48
2019-05-17T19:11:01.243Z,76403.43
2019-05-17T19:16:09.258Z,76388.45
2019-05-17T19:21:17.331Z,76378.47
2019-05-17T19:26:26.278Z,76382.47
2019-05-17T19:31:37.171Z,76385.46
2019-05-17T19:36:48.547Z,76404.43
2019-05-17T19:41:54.935Z,76406.42
2019-05-17T19:47:04.183Z,76399.44
2019-05-17T19:52:16.988Z,76410.42
2019-05-17T19:57:28.969Z,76406.42
2019-05-17T20:02:36.135Z,76420.41
2019-05-17T20:07:45.855Z,76436.38
2019-05-17T20:12:53.790Z,76414.41
2019-05-17T20:18:02.542Z,76364.50
2019-05-17T20:23:12.139Z,76344.53
2019-05-17T20:28:21.141Z,76377.48
2019-05-17T20:33:34.357Z,76401.44
2019-05-17T20:38:43.998Z,76383.47
2019-05-17T20:43:53.245Z,76371.48
2019-05-17T20:49:01.100Z,76392.45
2019-05-17T20:54:08.732Z,76419.41
2019-05-17T20:59:17.287Z,76437.38
2019-05-17T21:04:26.526Z,76434.38
2019-05-17T21:09:34.046Z,76426.39
2019-05-17T21:14:40.141Z,76432.38
2019-05-17T21:19:46.954Z,76423.40
2019-05-17T21:24:56.147Z,76468.32
2019-05-17T21:30:02.881Z,76468.32
2019-05-17T21:35:14.086Z,76502.27
2019-05-17T21:40:24.040Z,76514.25
2019-05-17T21:45:34.020Z,76468.32
2019-05-17T21:50:44.740Z,76458.34
2019-05-17T21:55:54.403Z,76482.30
2019-05-17T22:01:15.220Z,76486.30
2019-05-17T22:06:23.847Z,76482.30
2019-05-17T22:11:36.927Z,76479.30
2019-05-17T22:16:45.447Z,76485.30
2019-05-17T22:21:56.479Z,76474.31
2019-05-17T22:27:04.601Z,76481.30
2019-05-17T22:32:16.002Z,76482.30
2019-05-17T22:37:24.813Z,76488.29
2019-05-17T22:42:30.813Z,76477.30
2019-05-17T22:47:38.223Z,76478.30
2019-05-17T22:52:49.677Z,76487.29
2019-05-17T22:57:58.943Z,76483.30
2019-05-17T23:03:10.879Z,76474.31
2019-05-17T23:08:21.451Z,76484.30
2019-05-17T23:13:29.153Z,76482.30
2019-05-17T23:18:37.920Z,76490.28
2019-05-17T23:23:48.323Z,76472.31
2019-05-17T23:28:58.048Z,76458.34
2019-05-17T23:34:06.141Z,76460.34
2019-05-17T23:39:17.859Z,76455.34
2019-05-17T23:44:30.999Z,76467.33
2019-05-17T23:49:40.113Z,76494.28
2019-05-17T23:54:49.824Z,76482.30
2019-05-17T23:59:59.151Z,76485.30
